METAR Data
IDs: Format: Raw Decoded Include TAF

Data at: 2102 UTC 19 Apr 2021

EDDV 192050Z 31003KT CAVOK 07/06 Q1019 NOSIG

TAF EDDV 191700Z 1918/2018 VRB03KT CAVOK
  TEMPO 2000/2008 1500 BCFG
  PROB30
  TEMPO 2002/2005 0900 FG
  BECMG 2007/2009 35005KT